<?xml version="1.0" encoding="UTF-8" standalone="no" ?>
<gpx xmlns="http://www.topografix.com/GPX/1/1" xmlns:xsi="http://www.w3.org/2001/XMLSchema-instance" xsi:schemaLocation="http://www.topografix.com/GPX/1/1 http://www.topografix.com/GPX/1/1/gpx.xsd" version="1.1" creator="VisuGPX - https://www.visugpx.com">
  <metadata>
    <name>VSA Montagne - Critérium 11 Oct 2026: MN 9km</name>
    <desc><![CDATA[4ième Critérium Vallis Bonna 11 Oct 2026 : Parcours Marche Nordique 9km]]></desc>
  </metadata>
  <wpt lat="43.62272" lon="7.04406">
    <ele>157</ele>
    <name><![CDATA[Point de passage 1]]></name>
  </wpt>
  <wpt lat="43.62271" lon="7.04407">
    <ele>157</ele>
    <name><![CDATA[Point de passage 2]]></name>
  </wpt>
  <trk>
    <name><![CDATA[Projet MANO Criterium départ Bermond - Circuit Val martin 8K]]></name>
    <extensions>
      <line xmlns="http://www.topografix.com/GPX/gpx_style/0/2">
        <color>0000FF</color>
        <width>4</width>
      </line>
    </extensions>
    <trkseg>
      <trkpt lat="43.62272" lon="7.04406">
        <ele>157</ele>
        <time>2026-05-21T09:43:36.000Z</time>
      </trkpt>
      <trkpt lat="43.6233" lon="7.04364">
        <ele>163</ele>
        <time>2026-05-21T09:45:53.000Z</time>
      </trkpt>
      <trkpt lat="43.6241" lon="7.04292">
        <ele>165</ele>
        <time>2026-05-21T09:48:03.000Z</time>
      </trkpt>
      <trkpt lat="43.62422" lon="7.04279">
        <ele>165</ele>
        <time>2026-05-21T09:48:20.000Z</time>
      </trkpt>
      <trkpt lat="43.62441" lon="7.04225">
        <ele>170</ele>
        <time>2026-05-21T09:50:01.000Z</time>
      </trkpt>
      <trkpt lat="43.62482" lon="7.04172">
        <ele>176</ele>
        <time>2026-05-21T09:52:06.000Z</time>
      </trkpt>
      <trkpt lat="43.62494" lon="7.04169">
        <ele>175</ele>
        <time>2026-05-21T09:52:21.000Z</time>
      </trkpt>
      <trkpt lat="43.62484" lon="7.04168">
        <ele>176</ele>
        <time>2026-05-21T09:52:43.000Z</time>
      </trkpt>
      <trkpt lat="43.6254" lon="7.04176">
        <ele>173</ele>
        <time>2026-05-21T09:53:48.000Z</time>
      </trkpt>
      <trkpt lat="43.62585" lon="7.04154">
        <ele>173</ele>
        <time>2026-05-21T09:54:42.000Z</time>
      </trkpt>
      <trkpt lat="43.62562" lon="7.04074">
        <ele>176</ele>
        <time>2026-05-21T09:56:24.000Z</time>
      </trkpt>
      <trkpt lat="43.62555" lon="7.03969">
        <ele>178</ele>
        <time>2026-05-21T09:58:12.000Z</time>
      </trkpt>
      <trkpt lat="43.62528" lon="7.03877">
        <ele>181</ele>
        <time>2026-05-21T10:00:06.000Z</time>
      </trkpt>
      <trkpt lat="43.62513" lon="7.03844">
        <ele>182</ele>
        <time>2026-05-21T10:00:48.000Z</time>
      </trkpt>
      <trkpt lat="43.62468" lon="7.03782">
        <ele>183</ele>
        <time>2026-05-21T10:02:11.000Z</time>
      </trkpt>
      <trkpt lat="43.62479" lon="7.03775">
        <ele>181</ele>
        <time>2026-05-21T10:02:25.000Z</time>
      </trkpt>
      <trkpt lat="43.62473" lon="7.0375">
        <ele>182</ele>
        <time>2026-05-21T10:02:58.000Z</time>
      </trkpt>
      <trkpt lat="43.62473" lon="7.03734">
        <ele>182</ele>
        <time>2026-05-21T10:03:11.000Z</time>
      </trkpt>
      <trkpt lat="43.62468" lon="7.03721">
        <ele>182</ele>
        <time>2026-05-21T10:03:23.000Z</time>
      </trkpt>
      <trkpt lat="43.6252" lon="7.03728">
        <ele>184</ele>
        <time>2026-05-21T10:04:43.000Z</time>
      </trkpt>
      <trkpt lat="43.62574" lon="7.03724">
        <ele>185</ele>
        <time>2026-05-21T10:05:55.000Z</time>
      </trkpt>
      <trkpt lat="43.62586" lon="7.03727">
        <ele>186</ele>
        <time>2026-05-21T10:06:19.000Z</time>
      </trkpt>
      <trkpt lat="43.6262" lon="7.03754">
        <ele>189</ele>
        <time>2026-05-21T10:07:35.000Z</time>
      </trkpt>
      <trkpt lat="43.6265" lon="7.03757">
        <ele>191</ele>
        <time>2026-05-21T10:08:30.000Z</time>
      </trkpt>
      <trkpt lat="43.62662" lon="7.03754">
        <ele>192</ele>
        <time>2026-05-21T10:08:55.000Z</time>
      </trkpt>
      <trkpt lat="43.62705" lon="7.03729">
        <ele>195</ele>
        <time>2026-05-21T10:10:18.000Z</time>
      </trkpt>
      <trkpt lat="43.6272" lon="7.03716">
        <ele>197</ele>
        <time>2026-05-21T10:10:59.000Z</time>
      </trkpt>
      <trkpt lat="43.62775" lon="7.03655">
        <ele>200</ele>
        <time>2026-05-21T10:12:50.000Z</time>
      </trkpt>
      <trkpt lat="43.62798" lon="7.03634">
        <ele>200</ele>
        <time>2026-05-21T10:13:22.000Z</time>
      </trkpt>
      <trkpt lat="43.62827" lon="7.03636">
        <ele>201</ele>
        <time>2026-05-21T10:14:05.000Z</time>
      </trkpt>
      <trkpt lat="43.62847" lon="7.03617">
        <ele>201</ele>
        <time>2026-05-21T10:14:34.000Z</time>
      </trkpt>
      <trkpt lat="43.62839" lon="7.03623">
        <ele>201</ele>
        <time>2026-05-21T10:14:45.000Z</time>
      </trkpt>
      <trkpt lat="43.62829" lon="7.03595">
        <ele>201</ele>
        <time>2026-05-21T10:15:11.000Z</time>
      </trkpt>
      <trkpt lat="43.62831" lon="7.03587">
        <ele>202</ele>
        <time>2026-05-21T10:15:28.000Z</time>
      </trkpt>
      <trkpt lat="43.62836" lon="7.03558">
        <ele>201</ele>
        <time>2026-05-21T10:15:52.000Z</time>
      </trkpt>
      <trkpt lat="43.62846" lon="7.03525">
        <ele>201</ele>
        <time>2026-05-21T10:16:23.000Z</time>
      </trkpt>
      <trkpt lat="43.62909" lon="7.03407">
        <ele>197</ele>
        <time>2026-05-21T10:18:24.000Z</time>
      </trkpt>
      <trkpt lat="43.62916" lon="7.0335">
        <ele>194</ele>
        <time>2026-05-21T10:19:11.000Z</time>
      </trkpt>
      <trkpt lat="43.62913" lon="7.03304">
        <ele>191</ele>
        <time>2026-05-21T10:19:50.000Z</time>
      </trkpt>
      <trkpt lat="43.62903" lon="7.03277">
        <ele>189</ele>
        <time>2026-05-21T10:20:15.000Z</time>
      </trkpt>
      <trkpt lat="43.62878" lon="7.03237">
        <ele>186</ele>
        <time>2026-05-21T10:20:58.000Z</time>
      </trkpt>
      <trkpt lat="43.62875" lon="7.03221">
        <ele>185</ele>
        <time>2026-05-21T10:21:12.000Z</time>
      </trkpt>
      <trkpt lat="43.62878" lon="7.03202">
        <ele>184</ele>
        <time>2026-05-21T10:21:28.000Z</time>
      </trkpt>
      <trkpt lat="43.62897" lon="7.03147">
        <ele>181</ele>
        <time>2026-05-21T10:22:19.000Z</time>
      </trkpt>
      <trkpt lat="43.62902" lon="7.03121">
        <ele>180</ele>
        <time>2026-05-21T10:22:41.000Z</time>
      </trkpt>
      <trkpt lat="43.62894" lon="7.0306">
        <ele>177</ele>
        <time>2026-05-21T10:23:33.000Z</time>
      </trkpt>
      <trkpt lat="43.62894" lon="7.03037">
        <ele>176</ele>
        <time>2026-05-21T10:23:52.000Z</time>
      </trkpt>
      <trkpt lat="43.62908" lon="7.02964">
        <ele>171</ele>
        <time>2026-05-21T10:24:54.000Z</time>
      </trkpt>
      <trkpt lat="43.62912" lon="7.02927">
        <ele>169</ele>
        <time>2026-05-21T10:25:25.000Z</time>
      </trkpt>
      <trkpt lat="43.62905" lon="7.02817">
        <ele>160</ele>
        <time>2026-05-21T10:26:56.000Z</time>
      </trkpt>
      <trkpt lat="43.62908" lon="7.028">
        <ele>159</ele>
        <time>2026-05-21T10:27:11.000Z</time>
      </trkpt>
      <trkpt lat="43.62908" lon="7.028">
        <ele>159</ele>
        <time>2026-05-21T10:27:11.000Z</time>
      </trkpt>
      <trkpt lat="43.62915" lon="7.02792">
        <ele>158</ele>
        <time>2026-05-21T10:27:21.000Z</time>
      </trkpt>
      <trkpt lat="43.62928" lon="7.02791">
        <ele>158</ele>
        <time>2026-05-21T10:27:37.000Z</time>
      </trkpt>
      <trkpt lat="43.6295" lon="7.0278">
        <ele>160</ele>
        <time>2026-05-21T10:28:23.000Z</time>
      </trkpt>
      <trkpt lat="43.6299" lon="7.02734">
        <ele>166</ele>
        <time>2026-05-21T10:30:25.000Z</time>
      </trkpt>
      <trkpt lat="43.63016" lon="7.02689">
        <ele>170</ele>
        <time>2026-05-21T10:31:54.000Z</time>
      </trkpt>
      <trkpt lat="43.6305" lon="7.02594">
        <ele>173</ele>
        <time>2026-05-21T10:33:52.000Z</time>
      </trkpt>
      <trkpt lat="43.6305" lon="7.02594">
        <ele>173</ele>
        <time>2026-05-21T10:33:52.000Z</time>
      </trkpt>
      <trkpt lat="43.63064" lon="7.02581">
        <ele>172</ele>
        <time>2026-05-21T10:34:11.000Z</time>
      </trkpt>
      <trkpt lat="43.63087" lon="7.02543">
        <ele>170</ele>
        <time>2026-05-21T10:34:52.000Z</time>
      </trkpt>
      <trkpt lat="43.63149" lon="7.02541">
        <ele>175</ele>
        <time>2026-05-21T10:36:54.000Z</time>
      </trkpt>
      <trkpt lat="43.63162" lon="7.02568">
        <ele>175</ele>
        <time>2026-05-21T10:37:21.000Z</time>
      </trkpt>
      <trkpt lat="43.63166" lon="7.02598">
        <ele>175</ele>
        <time>2026-05-21T10:37:46.000Z</time>
      </trkpt>
      <trkpt lat="43.63148" lon="7.0264">
        <ele>177</ele>
        <time>2026-05-21T10:38:47.000Z</time>
      </trkpt>
      <trkpt lat="43.6309" lon="7.0282">
        <ele>187</ele>
        <time>2026-05-21T10:43:13.000Z</time>
      </trkpt>
      <trkpt lat="43.63083" lon="7.02866">
        <ele>189</ele>
        <time>2026-05-21T10:44:13.000Z</time>
      </trkpt>
      <trkpt lat="43.63086" lon="7.0291">
        <ele>190</ele>
        <time>2026-05-21T10:45:00.000Z</time>
      </trkpt>
      <trkpt lat="43.63089" lon="7.02928">
        <ele>191</ele>
        <time>2026-05-21T10:45:26.000Z</time>
      </trkpt>
      <trkpt lat="43.63104" lon="7.02971">
        <ele>192</ele>
        <time>2026-05-21T10:46:16.000Z</time>
      </trkpt>
      <trkpt lat="43.63107" lon="7.03012">
        <ele>194</ele>
        <time>2026-05-21T10:47:11.000Z</time>
      </trkpt>
      <trkpt lat="43.63125" lon="7.03085">
        <ele>196</ele>
        <time>2026-05-21T10:48:36.000Z</time>
      </trkpt>
      <trkpt lat="43.63127" lon="7.03139">
        <ele>196</ele>
        <time>2026-05-21T10:49:21.000Z</time>
      </trkpt>
      <trkpt lat="43.63138" lon="7.03176">
        <ele>195</ele>
        <time>2026-05-21T10:49:54.000Z</time>
      </trkpt>
      <trkpt lat="43.63151" lon="7.03203">
        <ele>196</ele>
        <time>2026-05-21T10:50:31.000Z</time>
      </trkpt>
      <trkpt lat="43.63159" lon="7.03229">
        <ele>195</ele>
        <time>2026-05-21T10:50:55.000Z</time>
      </trkpt>
      <trkpt lat="43.63182" lon="7.03335">
        <ele>198</ele>
        <time>2026-05-21T10:52:58.000Z</time>
      </trkpt>
      <trkpt lat="43.63194" lon="7.03367">
        <ele>199</ele>
        <time>2026-05-21T10:53:38.000Z</time>
      </trkpt>
      <trkpt lat="43.63205" lon="7.03402">
        <ele>199</ele>
        <time>2026-05-21T10:54:09.000Z</time>
      </trkpt>
      <trkpt lat="43.6322" lon="7.03426">
        <ele>196</ele>
        <time>2026-05-21T10:54:36.000Z</time>
      </trkpt>
      <trkpt lat="43.63236" lon="7.03439">
        <ele>195</ele>
        <time>2026-05-21T10:54:57.000Z</time>
      </trkpt>
      <trkpt lat="43.63271" lon="7.0345">
        <ele>192</ele>
        <time>2026-05-21T10:55:38.000Z</time>
      </trkpt>
      <trkpt lat="43.63275" lon="7.0346">
        <ele>191</ele>
        <time>2026-05-21T10:55:47.000Z</time>
      </trkpt>
      <trkpt lat="43.63279" lon="7.03529">
        <ele>185</ele>
        <time>2026-05-21T10:56:44.000Z</time>
      </trkpt>
      <trkpt lat="43.63286" lon="7.03549">
        <ele>184</ele>
        <time>2026-05-21T10:57:03.000Z</time>
      </trkpt>
      <trkpt lat="43.63297" lon="7.03569">
        <ele>182</ele>
        <time>2026-05-21T10:57:23.000Z</time>
      </trkpt>
      <trkpt lat="43.63337" lon="7.0361">
        <ele>178</ele>
        <time>2026-05-21T10:58:20.000Z</time>
      </trkpt>
      <trkpt lat="43.63359" lon="7.03619">
        <ele>176</ele>
        <time>2026-05-21T10:58:46.000Z</time>
      </trkpt>
      <trkpt lat="43.63383" lon="7.03636">
        <ele>174</ele>
        <time>2026-05-21T10:59:17.000Z</time>
      </trkpt>
      <trkpt lat="43.63393" lon="7.03641">
        <ele>172</ele>
        <time>2026-05-21T10:59:30.000Z</time>
      </trkpt>
      <trkpt lat="43.63413" lon="7.03643">
        <ele>170</ele>
        <time>2026-05-21T10:59:53.000Z</time>
      </trkpt>
      <trkpt lat="43.63456" lon="7.03623">
        <ele>166</ele>
        <time>2026-05-21T11:00:45.000Z</time>
      </trkpt>
      <trkpt lat="43.63569" lon="7.03515">
        <ele>154</ele>
        <time>2026-05-21T11:03:23.000Z</time>
      </trkpt>
      <trkpt lat="43.63574" lon="7.03506">
        <ele>154</ele>
        <time>2026-05-21T11:03:32.000Z</time>
      </trkpt>
      <trkpt lat="43.63579" lon="7.03471">
        <ele>152</ele>
        <time>2026-05-21T11:04:02.000Z</time>
      </trkpt>
      <trkpt lat="43.63584" lon="7.03464">
        <ele>151</ele>
        <time>2026-05-21T11:04:10.000Z</time>
      </trkpt>
      <trkpt lat="43.63587" lon="7.03469">
        <ele>151</ele>
        <time>2026-05-21T11:04:15.000Z</time>
      </trkpt>
      <trkpt lat="43.63592" lon="7.03502">
        <ele>148</ele>
        <time>2026-05-21T11:04:44.000Z</time>
      </trkpt>
      <trkpt lat="43.63593" lon="7.03541">
        <ele>145</ele>
        <time>2026-05-21T11:05:16.000Z</time>
      </trkpt>
      <trkpt lat="43.63586" lon="7.03563">
        <ele>144</ele>
        <time>2026-05-21T11:05:36.000Z</time>
      </trkpt>
      <trkpt lat="43.63567" lon="7.03588">
        <ele>142</ele>
        <time>2026-05-21T11:06:06.000Z</time>
      </trkpt>
      <trkpt lat="43.63567" lon="7.03597">
        <ele>141</ele>
        <time>2026-05-21T11:06:13.000Z</time>
      </trkpt>
      <trkpt lat="43.6358" lon="7.03604">
        <ele>140</ele>
        <time>2026-05-21T11:06:29.000Z</time>
      </trkpt>
      <trkpt lat="43.63594" lon="7.03592">
        <ele>138</ele>
        <time>2026-05-21T11:06:48.000Z</time>
      </trkpt>
      <trkpt lat="43.63602" lon="7.03593">
        <ele>136</ele>
        <time>2026-05-21T11:06:57.000Z</time>
      </trkpt>
      <trkpt lat="43.63606" lon="7.03604">
        <ele>139</ele>
        <time>2026-05-21T11:07:38.000Z</time>
      </trkpt>
      <trkpt lat="43.63586" lon="7.03642">
        <ele>140</ele>
        <time>2026-05-21T11:08:26.000Z</time>
      </trkpt>
      <trkpt lat="43.63552" lon="7.03652">
        <ele>140</ele>
        <time>2026-05-21T11:09:06.000Z</time>
      </trkpt>
      <trkpt lat="43.63542" lon="7.03662">
        <ele>139</ele>
        <time>2026-05-21T11:09:20.000Z</time>
      </trkpt>
      <trkpt lat="43.63541" lon="7.03673">
        <ele>139</ele>
        <time>2026-05-21T11:09:29.000Z</time>
      </trkpt>
      <trkpt lat="43.6356" lon="7.03745">
        <ele>144</ele>
        <time>2026-05-21T11:11:24.000Z</time>
      </trkpt>
      <trkpt lat="43.63561" lon="7.03761">
        <ele>144</ele>
        <time>2026-05-21T11:11:37.000Z</time>
      </trkpt>
      <trkpt lat="43.63555" lon="7.038">
        <ele>146</ele>
        <time>2026-05-21T11:12:31.000Z</time>
      </trkpt>
      <trkpt lat="43.63536" lon="7.03851">
        <ele>148</ele>
        <time>2026-05-21T11:13:39.000Z</time>
      </trkpt>
      <trkpt lat="43.63506" lon="7.03894">
        <ele>150</ele>
        <time>2026-05-21T11:14:49.000Z</time>
      </trkpt>
      <trkpt lat="43.63483" lon="7.03909">
        <ele>152</ele>
        <time>2026-05-21T11:15:39.000Z</time>
      </trkpt>
      <trkpt lat="43.6347" lon="7.03914">
        <ele>151</ele>
        <time>2026-05-21T11:15:54.000Z</time>
      </trkpt>
      <trkpt lat="43.63425" lon="7.03909">
        <ele>150</ele>
        <time>2026-05-21T11:16:46.000Z</time>
      </trkpt>
      <trkpt lat="43.63414" lon="7.03918">
        <ele>149</ele>
        <time>2026-05-21T11:17:01.000Z</time>
      </trkpt>
      <trkpt lat="43.63395" lon="7.03941">
        <ele>146</ele>
        <time>2026-05-21T11:17:30.000Z</time>
      </trkpt>
      <trkpt lat="43.63391" lon="7.03979">
        <ele>144</ele>
        <time>2026-05-21T11:18:02.000Z</time>
      </trkpt>
      <trkpt lat="43.6339" lon="7.04041">
        <ele>142</ele>
        <time>2026-05-21T11:18:53.000Z</time>
      </trkpt>
      <trkpt lat="43.63398" lon="7.04059">
        <ele>142</ele>
        <time>2026-05-21T11:19:10.000Z</time>
      </trkpt>
      <trkpt lat="43.63433" lon="7.04085">
        <ele>143</ele>
        <time>2026-05-21T11:20:06.000Z</time>
      </trkpt>
      <trkpt lat="43.63451" lon="7.0412">
        <ele>142</ele>
        <time>2026-05-21T11:20:42.000Z</time>
      </trkpt>
      <trkpt lat="43.63483" lon="7.04156">
        <ele>141</ele>
        <time>2026-05-21T11:21:29.000Z</time>
      </trkpt>
      <trkpt lat="43.63499" lon="7.04179">
        <ele>142</ele>
        <time>2026-05-21T11:22:06.000Z</time>
      </trkpt>
      <trkpt lat="43.63517" lon="7.042">
        <ele>143</ele>
        <time>2026-05-21T11:22:43.000Z</time>
      </trkpt>
      <trkpt lat="43.63534" lon="7.04208">
        <ele>144</ele>
        <time>2026-05-21T11:23:14.000Z</time>
      </trkpt>
      <trkpt lat="43.63542" lon="7.0421">
        <ele>144</ele>
        <time>2026-05-21T11:23:24.000Z</time>
      </trkpt>
      <trkpt lat="43.63567" lon="7.04202">
        <ele>144</ele>
        <time>2026-05-21T11:23:53.000Z</time>
      </trkpt>
      <trkpt lat="43.6358" lon="7.04202">
        <ele>144</ele>
        <time>2026-05-21T11:24:07.000Z</time>
      </trkpt>
      <trkpt lat="43.63599" lon="7.0422">
        <ele>144</ele>
        <time>2026-05-21T11:24:33.000Z</time>
      </trkpt>
      <trkpt lat="43.63643" lon="7.04235">
        <ele>143</ele>
        <time>2026-05-21T11:25:25.000Z</time>
      </trkpt>
      <trkpt lat="43.63646" lon="7.04253">
        <ele>143</ele>
        <time>2026-05-21T11:25:41.000Z</time>
      </trkpt>
      <trkpt lat="43.63659" lon="7.04266">
        <ele>143</ele>
        <time>2026-05-21T11:25:59.000Z</time>
      </trkpt>
      <trkpt lat="43.63694" lon="7.04289">
        <ele>144</ele>
        <time>2026-05-21T11:26:53.000Z</time>
      </trkpt>
      <trkpt lat="43.63692" lon="7.04333">
        <ele>144</ele>
        <time>2026-05-21T11:27:29.000Z</time>
      </trkpt>
      <trkpt lat="43.63698" lon="7.0437">
        <ele>141</ele>
        <time>2026-05-21T11:28:00.000Z</time>
      </trkpt>
      <trkpt lat="43.63711" lon="7.04415">
        <ele>140</ele>
        <time>2026-05-21T11:28:41.000Z</time>
      </trkpt>
      <trkpt lat="43.63721" lon="7.04419">
        <ele>143</ele>
        <time>2026-05-21T11:29:24.000Z</time>
      </trkpt>
      <trkpt lat="43.6372" lon="7.04427">
        <ele>143</ele>
        <time>2026-05-21T11:29:31.000Z</time>
      </trkpt>
      <trkpt lat="43.63709" lon="7.04437">
        <ele>143</ele>
        <time>2026-05-21T11:29:47.000Z</time>
      </trkpt>
      <trkpt lat="43.63703" lon="7.0445">
        <ele>142</ele>
        <time>2026-05-21T11:30:00.000Z</time>
      </trkpt>
      <trkpt lat="43.63703" lon="7.04464">
        <ele>141</ele>
        <time>2026-05-21T11:30:12.000Z</time>
      </trkpt>
      <trkpt lat="43.6371" lon="7.04476">
        <ele>141</ele>
        <time>2026-05-21T11:30:25.000Z</time>
      </trkpt>
      <trkpt lat="43.63711" lon="7.04491">
        <ele>140</ele>
        <time>2026-05-21T11:30:38.000Z</time>
      </trkpt>
      <trkpt lat="43.63695" lon="7.04507">
        <ele>137</ele>
        <time>2026-05-21T11:31:01.000Z</time>
      </trkpt>
      <trkpt lat="43.63692" lon="7.04514">
        <ele>137</ele>
        <time>2026-05-21T11:31:08.000Z</time>
      </trkpt>
      <trkpt lat="43.63698" lon="7.04563">
        <ele>135</ele>
        <time>2026-05-21T11:31:49.000Z</time>
      </trkpt>
      <trkpt lat="43.63711" lon="7.04591">
        <ele>133</ele>
        <time>2026-05-21T11:32:16.000Z</time>
      </trkpt>
      <trkpt lat="43.6371" lon="7.04603">
        <ele>132</ele>
        <time>2026-05-21T11:32:27.000Z</time>
      </trkpt>
      <trkpt lat="43.63672" lon="7.04662">
        <ele>128</ele>
        <time>2026-05-21T11:33:32.000Z</time>
      </trkpt>
      <trkpt lat="43.63656" lon="7.04672">
        <ele>126</ele>
        <time>2026-05-21T11:33:51.000Z</time>
      </trkpt>
      <trkpt lat="43.63639" lon="7.04693">
        <ele>122</ele>
        <time>2026-05-21T11:34:17.000Z</time>
      </trkpt>
      <trkpt lat="43.63627" lon="7.04702">
        <ele>122</ele>
        <time>2026-05-21T11:34:32.000Z</time>
      </trkpt>
      <trkpt lat="43.63619" lon="7.047">
        <ele>123</ele>
        <time>2026-05-21T11:34:52.000Z</time>
      </trkpt>
      <trkpt lat="43.6361" lon="7.04716">
        <ele>122</ele>
        <time>2026-05-21T11:35:09.000Z</time>
      </trkpt>
      <trkpt lat="43.63598" lon="7.04725">
        <ele>121</ele>
        <time>2026-05-21T11:35:25.000Z</time>
      </trkpt>
      <trkpt lat="43.63593" lon="7.04738">
        <ele>121</ele>
        <time>2026-05-21T11:35:38.000Z</time>
      </trkpt>
      <trkpt lat="43.63592" lon="7.04756">
        <ele>120</ele>
        <time>2026-05-21T11:35:53.000Z</time>
      </trkpt>
      <trkpt lat="43.63588" lon="7.04768">
        <ele>118</ele>
        <time>2026-05-21T11:36:04.000Z</time>
      </trkpt>
      <trkpt lat="43.63578" lon="7.04782">
        <ele>117</ele>
        <time>2026-05-21T11:36:20.000Z</time>
      </trkpt>
      <trkpt lat="43.63555" lon="7.04837">
        <ele>113</ele>
        <time>2026-05-21T11:37:12.000Z</time>
      </trkpt>
      <trkpt lat="43.63539" lon="7.04856">
        <ele>112</ele>
        <time>2026-05-21T11:37:36.000Z</time>
      </trkpt>
      <trkpt lat="43.63528" lon="7.04875">
        <ele>110</ele>
        <time>2026-05-21T11:37:57.000Z</time>
      </trkpt>
      <trkpt lat="43.63505" lon="7.04892">
        <ele>102</ele>
        <time>2026-05-21T11:38:27.000Z</time>
      </trkpt>
      <trkpt lat="43.6349" lon="7.04913">
        <ele>97</ele>
        <time>2026-05-21T11:38:51.000Z</time>
      </trkpt>
      <trkpt lat="43.6348" lon="7.04917">
        <ele>93</ele>
        <time>2026-05-21T11:39:03.000Z</time>
      </trkpt>
      <trkpt lat="43.63447" lon="7.0492">
        <ele>95</ele>
        <time>2026-05-21T11:40:01.000Z</time>
      </trkpt>
      <trkpt lat="43.63447" lon="7.0492">
        <ele>95</ele>
        <time>2026-05-21T11:40:01.000Z</time>
      </trkpt>
      <trkpt lat="43.63443" lon="7.04932">
        <ele>95</ele>
        <time>2026-05-21T11:40:11.000Z</time>
      </trkpt>
      <trkpt lat="43.63451" lon="7.04976">
        <ele>96</ele>
        <time>2026-05-21T11:40:59.000Z</time>
      </trkpt>
      <trkpt lat="43.6345" lon="7.05012">
        <ele>98</ele>
        <time>2026-05-21T11:41:49.000Z</time>
      </trkpt>
      <trkpt lat="43.63453" lon="7.05015">
        <ele>98</ele>
        <time>2026-05-21T11:41:52.000Z</time>
      </trkpt>
      <trkpt lat="43.6345" lon="7.05024">
        <ele>99</ele>
        <time>2026-05-21T11:42:10.000Z</time>
      </trkpt>
      <trkpt lat="43.63445" lon="7.05042">
        <ele>99</ele>
        <time>2026-05-21T11:42:26.000Z</time>
      </trkpt>
      <trkpt lat="43.63394" lon="7.05101">
        <ele>107</ele>
        <time>2026-05-21T11:45:05.000Z</time>
      </trkpt>
      <trkpt lat="43.63365" lon="7.05115">
        <ele>110</ele>
        <time>2026-05-21T11:46:11.000Z</time>
      </trkpt>
      <trkpt lat="43.63356" lon="7.05114">
        <ele>111</ele>
        <time>2026-05-21T11:46:31.000Z</time>
      </trkpt>
      <trkpt lat="43.63349" lon="7.05108">
        <ele>112</ele>
        <time>2026-05-21T11:46:51.000Z</time>
      </trkpt>
      <trkpt lat="43.63352" lon="7.05048">
        <ele>116</ele>
        <time>2026-05-21T11:48:23.000Z</time>
      </trkpt>
      <trkpt lat="43.6336" lon="7.05001">
        <ele>119</ele>
        <time>2026-05-21T11:49:34.000Z</time>
      </trkpt>
      <trkpt lat="43.63359" lon="7.04945">
        <ele>122</ele>
        <time>2026-05-21T11:50:51.000Z</time>
      </trkpt>
      <trkpt lat="43.63351" lon="7.04921">
        <ele>123</ele>
        <time>2026-05-21T11:51:23.000Z</time>
      </trkpt>
      <trkpt lat="43.63332" lon="7.04901">
        <ele>126</ele>
        <time>2026-05-21T11:52:22.000Z</time>
      </trkpt>
      <trkpt lat="43.63323" lon="7.04889">
        <ele>127</ele>
        <time>2026-05-21T11:52:47.000Z</time>
      </trkpt>
      <trkpt lat="43.63288" lon="7.04803">
        <ele>133</ele>
        <time>2026-05-21T11:55:11.000Z</time>
      </trkpt>
      <trkpt lat="43.63286" lon="7.04784">
        <ele>134</ele>
        <time>2026-05-21T11:55:37.000Z</time>
      </trkpt>
      <trkpt lat="43.63289" lon="7.04722">
        <ele>138</ele>
        <time>2026-05-21T11:57:10.000Z</time>
      </trkpt>
      <trkpt lat="43.63309" lon="7.04649">
        <ele>141</ele>
        <time>2026-05-21T11:58:45.000Z</time>
      </trkpt>
      <trkpt lat="43.63328" lon="7.04616">
        <ele>142</ele>
        <time>2026-05-21T11:59:29.000Z</time>
      </trkpt>
      <trkpt lat="43.63347" lon="7.04593">
        <ele>144</ele>
        <time>2026-05-21T12:00:19.000Z</time>
      </trkpt>
      <trkpt lat="43.63358" lon="7.04564">
        <ele>144</ele>
        <time>2026-05-21T12:00:47.000Z</time>
      </trkpt>
      <trkpt lat="43.63359" lon="7.04535">
        <ele>145</ele>
        <time>2026-05-21T12:01:21.000Z</time>
      </trkpt>
      <trkpt lat="43.63354" lon="7.04464">
        <ele>147</ele>
        <time>2026-05-21T12:02:41.000Z</time>
      </trkpt>
      <trkpt lat="43.63345" lon="7.04416">
        <ele>148</ele>
        <time>2026-05-21T12:03:32.000Z</time>
      </trkpt>
      <trkpt lat="43.63338" lon="7.04395">
        <ele>148</ele>
        <time>2026-05-21T12:03:51.000Z</time>
      </trkpt>
      <trkpt lat="43.63321" lon="7.04361">
        <ele>147</ele>
        <time>2026-05-21T12:04:25.000Z</time>
      </trkpt>
      <trkpt lat="43.63298" lon="7.04336">
        <ele>148</ele>
        <time>2026-05-21T12:05:09.000Z</time>
      </trkpt>
      <trkpt lat="43.63276" lon="7.04302">
        <ele>153</ele>
        <time>2026-05-21T12:06:38.000Z</time>
      </trkpt>
      <trkpt lat="43.63248" lon="7.04275">
        <ele>155</ele>
        <time>2026-05-21T12:07:38.000Z</time>
      </trkpt>
      <trkpt lat="43.63237" lon="7.04234">
        <ele>158</ele>
        <time>2026-05-21T12:08:46.000Z</time>
      </trkpt>
      <trkpt lat="43.63201" lon="7.04179">
        <ele>163</ele>
        <time>2026-05-21T12:10:38.000Z</time>
      </trkpt>
      <trkpt lat="43.63174" lon="7.04116">
        <ele>166</ele>
        <time>2026-05-21T12:12:10.000Z</time>
      </trkpt>
      <trkpt lat="43.63163" lon="7.04097">
        <ele>166</ele>
        <time>2026-05-21T12:12:30.000Z</time>
      </trkpt>
      <trkpt lat="43.63126" lon="7.04033">
        <ele>168</ele>
        <time>2026-05-21T12:13:59.000Z</time>
      </trkpt>
      <trkpt lat="43.63086" lon="7.03976">
        <ele>169</ele>
        <time>2026-05-21T12:15:15.000Z</time>
      </trkpt>
      <trkpt lat="43.63074" lon="7.03952">
        <ele>167</ele>
        <time>2026-05-21T12:15:39.000Z</time>
      </trkpt>
      <trkpt lat="43.63059" lon="7.03912">
        <ele>166</ele>
        <time>2026-05-21T12:16:16.000Z</time>
      </trkpt>
      <trkpt lat="43.63097" lon="7.03855">
        <ele>169</ele>
        <time>2026-05-21T12:17:51.000Z</time>
      </trkpt>
      <trkpt lat="43.63104" lon="7.03837">
        <ele>172</ele>
        <time>2026-05-21T12:18:39.000Z</time>
      </trkpt>
      <trkpt lat="43.63109" lon="7.03791">
        <ele>174</ele>
        <time>2026-05-21T12:19:38.000Z</time>
      </trkpt>
      <trkpt lat="43.63108" lon="7.03778">
        <ele>176</ele>
        <time>2026-05-21T12:20:10.000Z</time>
      </trkpt>
      <trkpt lat="43.63103" lon="7.03763">
        <ele>177</ele>
        <time>2026-05-21T12:20:34.000Z</time>
      </trkpt>
      <trkpt lat="43.62985" lon="7.03654">
        <ele>193</ele>
        <time>2026-05-21T12:26:01.000Z</time>
      </trkpt>
      <trkpt lat="43.62904" lon="7.03592">
        <ele>199</ele>
        <time>2026-05-21T12:28:48.000Z</time>
      </trkpt>
      <trkpt lat="43.6286" lon="7.03576">
        <ele>200</ele>
        <time>2026-05-21T12:29:50.000Z</time>
      </trkpt>
      <trkpt lat="43.62836" lon="7.03558">
        <ele>201</ele>
        <time>2026-05-21T12:30:32.000Z</time>
      </trkpt>
      <trkpt lat="43.62829" lon="7.03595">
        <ele>201</ele>
        <time>2026-05-21T12:31:03.000Z</time>
      </trkpt>
      <trkpt lat="43.62839" lon="7.03623">
        <ele>201</ele>
        <time>2026-05-21T12:31:29.000Z</time>
      </trkpt>
      <trkpt lat="43.62834" lon="7.03632">
        <ele>201</ele>
        <time>2026-05-21T12:31:38.000Z</time>
      </trkpt>
      <trkpt lat="43.62827" lon="7.03636">
        <ele>201</ele>
        <time>2026-05-21T12:31:47.000Z</time>
      </trkpt>
      <trkpt lat="43.62804" lon="7.03634">
        <ele>200</ele>
        <time>2026-05-21T12:32:13.000Z</time>
      </trkpt>
      <trkpt lat="43.62792" lon="7.03638">
        <ele>200</ele>
        <time>2026-05-21T12:32:27.000Z</time>
      </trkpt>
      <trkpt lat="43.62746" lon="7.03688">
        <ele>199</ele>
        <time>2026-05-21T12:33:34.000Z</time>
      </trkpt>
      <trkpt lat="43.62705" lon="7.03729">
        <ele>195</ele>
        <time>2026-05-21T12:34:32.000Z</time>
      </trkpt>
      <trkpt lat="43.62662" lon="7.03754">
        <ele>192</ele>
        <time>2026-05-21T12:35:25.000Z</time>
      </trkpt>
      <trkpt lat="43.62642" lon="7.03758">
        <ele>190</ele>
        <time>2026-05-21T12:35:49.000Z</time>
      </trkpt>
      <trkpt lat="43.6262" lon="7.03754">
        <ele>189</ele>
        <time>2026-05-21T12:36:14.000Z</time>
      </trkpt>
      <trkpt lat="43.62578" lon="7.03724">
        <ele>186</ele>
        <time>2026-05-21T12:37:08.000Z</time>
      </trkpt>
      <trkpt lat="43.6252" lon="7.03728">
        <ele>184</ele>
        <time>2026-05-21T12:38:14.000Z</time>
      </trkpt>
      <trkpt lat="43.62468" lon="7.03721">
        <ele>182</ele>
        <time>2026-05-21T12:39:14.000Z</time>
      </trkpt>
      <trkpt lat="43.62473" lon="7.03734">
        <ele>182</ele>
        <time>2026-05-21T12:39:26.000Z</time>
      </trkpt>
      <trkpt lat="43.62473" lon="7.0375">
        <ele>182</ele>
        <time>2026-05-21T12:39:39.000Z</time>
      </trkpt>
      <trkpt lat="43.62479" lon="7.03775">
        <ele>181</ele>
        <time>2026-05-21T12:40:01.000Z</time>
      </trkpt>
      <trkpt lat="43.62468" lon="7.03782">
        <ele>183</ele>
        <time>2026-05-21T12:40:36.000Z</time>
      </trkpt>
      <trkpt lat="43.62513" lon="7.03844">
        <ele>182</ele>
        <time>2026-05-21T12:41:49.000Z</time>
      </trkpt>
      <trkpt lat="43.62528" lon="7.03877">
        <ele>181</ele>
        <time>2026-05-21T12:42:21.000Z</time>
      </trkpt>
      <trkpt lat="43.62555" lon="7.03969">
        <ele>178</ele>
        <time>2026-05-21T12:43:44.000Z</time>
      </trkpt>
      <trkpt lat="43.62562" lon="7.04074">
        <ele>176</ele>
        <time>2026-05-21T12:45:11.000Z</time>
      </trkpt>
      <trkpt lat="43.62585" lon="7.04154">
        <ele>173</ele>
        <time>2026-05-21T12:46:22.000Z</time>
      </trkpt>
      <trkpt lat="43.6254" lon="7.04176">
        <ele>173</ele>
        <time>2026-05-21T12:47:16.000Z</time>
      </trkpt>
      <trkpt lat="43.62494" lon="7.04169">
        <ele>175</ele>
        <time>2026-05-21T12:48:29.000Z</time>
      </trkpt>
      <trkpt lat="43.62482" lon="7.04172">
        <ele>176</ele>
        <time>2026-05-21T12:48:54.000Z</time>
      </trkpt>
      <trkpt lat="43.62441" lon="7.04225">
        <ele>170</ele>
        <time>2026-05-21T12:49:58.000Z</time>
      </trkpt>
      <trkpt lat="43.62422" lon="7.04279">
        <ele>165</ele>
        <time>2026-05-21T12:50:48.000Z</time>
      </trkpt>
      <trkpt lat="43.6241" lon="7.04292">
        <ele>165</ele>
        <time>2026-05-21T12:51:05.000Z</time>
      </trkpt>
      <trkpt lat="43.6233" lon="7.04364">
        <ele>163</ele>
        <time>2026-05-21T12:52:54.000Z</time>
      </trkpt>
      <trkpt lat="43.62271" lon="7.04407">
        <ele>157</ele>
        <time>2026-05-21T12:54:10.000Z</time>
      </trkpt>
    </trkseg>
  </trk>
</gpx>